Nagqu, China
Current Conditions -  °F | °C
As of 11:20 PM on Friday 24 Oct 2014 (Local Time) from VGHS Reporting Station
Haze Haze  
Wind Chill: 81°   Ceiling: Unl
Heat Index: 83°   Visibility: 2.5mi
Dew Point: 68°   Wind: 0mph
Humidity: 65%   Direction: NA
Pressure: 29.85"   Gusts: NA
Location:  31.48°N, 92.07°E
Report Text: VGHS 241520Z 00000KT 4000 HZ SCT120 27/20 Q1011 NOSIG
Loading
Personal Weather Stations






























Interactive Weather Map
Tropical Storm Tracking
New forecast layout! Learn more

10-Day Weather Forecast

Advertisements
Track Severe Weather on mobile